sensor_id;sensor_type;location;lat;lon;timestamp;pressure;altitude;pressure_sealevel;temperature;humidity
65718;BME280;52445;52.466;-1.016;2023-02-17T00:01:21;100313.22;;;9.79;79.01
65718;BME280;52445;52.466;-1.016;2023-02-17T00:03:50;100314.97;;;9.83;79.19
65718;BME280;52445;52.466;-1.016;2023-02-17T00:06:18;100324.44;;;9.85;79.91
65718;BME280;52445;52.466;-1.016;2023-02-17T00:08:46;100326.16;;;9.86;79.51
65718;BME280;52445;52.466;-1.016;2023-02-17T00:11:14;100334.81;;;9.90;79.85
65718;BME280;52445;52.466;-1.016;2023-02-17T00:13:41;100318.44;;;9.91;79.67
65718;BME280;52445;52.466;-1.016;2023-02-17T00:16:18;100315.00;;;9.95;79.82
65718;BME280;52445;52.466;-1.016;2023-02-17T00:18:46;100302.94;;;9.94;78.73
65718;BME280;52445;52.466;-1.016;2023-02-17T00:21:17;100299.50;;;9.98;79.64
65718;BME280;52445;52.466;-1.016;2023-02-17T00:23:45;100307.28;;;10.00;79.21
65718;BME280;52445;52.466;-1.016;2023-02-17T00:26:13;100309.88;;;10.01;79.41
65718;BME280;52445;52.466;-1.016;2023-02-17T00:28:40;100306.41;;;10.02;79.42
65718;BME280;52445;52.466;-1.016;2023-02-17T00:31:09;100305.56;;;10.05;79.87
65718;BME280;52445;52.466;-1.016;2023-02-17T00:33:36;100309.03;;;10.07;79.34
65718;BME280;52445;52.466;-1.016;2023-02-17T00:36:05;100290.03;;;10.08;79.81
65718;BME280;52445;52.466;-1.016;2023-02-17T00:38:33;100290.88;;;10.09;79.58
65718;BME280;52445;52.466;-1.016;2023-02-17T00:40:59;100301.25;;;10.12;79.15
65718;BME280;52445;52.466;-1.016;2023-02-17T00:43:26;100290.91;;;10.15;79.59
65718;BME280;52445;52.466;-1.016;2023-02-17T00:45:53;100293.53;;;10.18;79.87
65718;BME280;52445;52.466;-1.016;2023-02-17T00:48:20;100286.59;;;10.20;79.08
65718;BME280;52445;52.466;-1.016;2023-02-17T00:50:47;100284.03;;;10.20;80.11
65718;BME280;52445;52.466;-1.016;2023-02-17T00:53:14;100282.28;;;10.19;79.35
65718;BME280;52445;52.466;-1.016;2023-02-17T00:55:41;100282.31;;;10.22;79.39
65718;BME280;52445;52.466;-1.016;2023-02-17T00:58:08;100285.78;;;10.21;79.99
65718;BME280;52445;52.466;-1.016;2023-02-17T01:00:35;100280.59;;;10.21;80.22
65718;BME280;52445;52.466;-1.016;2023-02-17T01:03:02;100278.84;;;10.23;79.53
65718;BME280;52445;52.466;-1.016;2023-02-17T01:05:29;100270.22;;;10.24;79.66
65718;BME280;52445;52.466;-1.016;2023-02-17T01:07:55;100266.78;;;10.25;80.48
65718;BME280;52445;52.466;-1.016;2023-02-17T01:10:22;100268.50;;;10.23;80.38
65718;BME280;52445;52.466;-1.016;2023-02-17T01:12:49;100270.25;;;10.21;80.43
65718;BME280;52445;52.466;-1.016;2023-02-17T01:15:16;100266.78;;;10.25;79.49
65718;BME280;52445;52.466;-1.016;2023-02-17T01:17:43;100271.97;;;10.25;80.66
65718;BME280;52445;52.466;-1.016;2023-02-17T01:20:10;100259.88;;;10.27;80.39
65718;BME280;52445;52.466;-1.016;2023-02-17T01:22:38;100249.50;;;10.24;80.36
65718;BME280;52445;52.466;-1.016;2023-02-17T01:25:05;100263.34;;;10.26;80.21
65718;BME280;52445;52.466;-1.016;2023-02-17T01:27:33;100260.75;;;10.29;80.69
65718;BME280;52445;52.466;-1.016;2023-02-17T01:30:00;100254.72;;;10.31;80.46
65718;BME280;52445;52.466;-1.016;2023-02-17T01:32:27;100253.84;;;10.32;80.48
65718;BME280;52445;52.466;-1.016;2023-02-17T01:34:54;100248.66;;;10.32;79.79
65718;BME280;52445;52.466;-1.016;2023-02-17T01:37:21;100254.72;;;10.31;80.19
65718;BME280;52445;52.466;-1.016;2023-02-17T01:39:48;100258.19;;;10.33;79.98
65718;BME280;52445;52.466;-1.016;2023-02-17T01:42:16;100261.63;;;10.33;79.95
65718;BME280;52445;52.466;-1.016;2023-02-17T01:50:39;100259.03;;;10.39;81.10
65718;BME280;52445;52.466;-1.016;2023-02-17T01:53:08;100259.06;;;10.41;81.08
65718;BME280;52445;52.466;-1.016;2023-02-17T01:55:37;100254.72;;;10.37;81.02
65718;BME280;52445;52.466;-1.016;2023-02-17T01:58:08;100266.84;;;10.44;81.19
65718;BME280;52445;52.466;-1.016;2023-02-17T02:00:36;100263.34;;;10.42;81.18
65718;BME280;52445;52.466;-1.016;2023-02-17T02:03:05;100267.72;;;10.48;81.33
65718;BME280;52445;52.466;-1.016;2023-02-17T02:05:34;100261.66;;;10.47;80.65
65718;BME280;52445;52.466;-1.016;2023-02-17T02:08:03;100268.59;;;10.48;81.41
65718;BME280;52445;52.466;-1.016;2023-02-17T02:10:30;100265.97;;;10.51;81.26
65718;BME280;52445;52.466;-1.016;2023-02-17T02:12:56;100261.66;;;10.50;80.52
65718;BME280;52445;52.466;-1.016;2023-02-17T02:15:26;100266.00;;;10.56;81.48
65718;BME280;52445;52.466;-1.016;2023-02-17T02:23:47;100272.03;;;10.53;80.65
65718;BME280;52445;52.466;-1.016;2023-02-17T02:35:22;100248.75;;;10.58;81.46
65718;BME280;52445;52.466;-1.016;2023-02-17T02:37:57;100263.41;;;10.61;80.59
65718;BME280;52445;52.466;-1.016;2023-02-17T02:40:30;100249.59;;;10.59;81.23
65718;BME280;52445;52.466;-1.016;2023-02-17T02:43:00;100249.56;;;10.56;80.54
65718;BME280;52445;52.466;-1.016;2023-02-17T02:45:27;100258.22;;;10.58;80.56
65718;BME280;52445;52.466;-1.016;2023-02-17T02:47:56;100252.16;;;10.56;81.06
65718;BME280;52445;52.466;-1.016;2023-02-17T02:59:15;100256.50;;;10.50;80.24
65718;BME280;52445;52.466;-1.016;2023-02-17T03:04:52;100243.53;;;10.49;80.00
65718;BME280;52445;52.466;-1.016;2023-02-17T03:07:34;100243.53;;;10.49;80.11
65718;BME280;52445;52.466;-1.016;2023-02-17T03:10:02;100241.84;;;10.52;79.97
65718;BME280;52445;52.466;-1.016;2023-02-17T03:12:29;100230.59;;;10.49;80.32
65718;BME280;52445;52.466;-1.016;2023-02-17T03:15:01;100227.16;;;10.45;80.46
65718;BME280;52445;52.466;-1.016;2023-02-17T03:17:31;100249.59;;;10.46;80.14
65718;BME280;52445;52.466;-1.016;2023-02-17T03:19:59;100242.66;;;10.33;79.94
65718;BME280;52445;52.466;-1.016;2023-02-17T03:22:31;100232.28;;;10.39;79.46
65718;BME280;52445;52.466;-1.016;2023-02-17T03:24:59;100233.16;;;10.39;80.41
65718;BME280;52445;52.466;-1.016;2023-02-17T03:27:27;100235.75;;;10.39;80.16
65718;BME280;52445;52.466;-1.016;2023-02-17T03:29:54;100217.63;;;10.38;80.22
65718;BME280;52445;52.466;-1.016;2023-02-17T03:32:20;100231.44;;;10.35;79.73
65718;BME280;52445;52.466;-1.016;2023-02-17T03:34:47;100216.72;;;10.36;79.90
65718;BME280;52445;52.466;-1.016;2023-02-17T03:37:14;100228.84;;;10.34;79.97
65718;BME280;52445;52.466;-1.016;2023-02-17T03:39:40;100239.19;;;10.34;79.07
65718;BME280;52445;52.466;-1.016;2023-02-17T03:42:07;100230.53;;;10.32;79.16
65718;BME280;52445;52.466;-1.016;2023-02-17T03:44:33;100232.28;;;10.29;79.67
65718;BME280;52445;52.466;-1.016;2023-02-17T03:47:00;100235.72;;;10.25;79.99
65718;BME280;52445;52.466;-1.016;2023-02-17T03:49:27;100215.03;;;10.25;79.87
65718;BME280;52445;52.466;-1.016;2023-02-17T03:51:53;100230.56;;;10.28;79.37
65718;BME280;52445;52.466;-1.016;2023-02-17T03:54:20;100222.78;;;10.32;78.97
65718;BME280;52445;52.466;-1.016;2023-02-17T03:56:47;100218.47;;;10.31;79.01
65718;BME280;52445;52.466;-1.016;2023-02-17T03:59:13;100228.81;;;10.31;79.18
65718;BME280;52445;52.466;-1.016;2023-02-17T04:01:40;100234.88;;;10.28;79.78
65718;BME280;52445;52.466;-1.016;2023-02-17T04:04:06;100226.22;;;10.31;79.50
65718;BME280;52445;52.466;-1.016;2023-02-17T04:06:33;100221.94;;;10.29;79.40
65718;BME280;52445;52.466;-1.016;2023-02-17T04:09:00;100240.06;;;10.31;79.45
65718;BME280;52445;52.466;-1.016;2023-02-17T04:11:26;100241.75;;;10.31;79.21
65718;BME280;52445;52.466;-1.016;2023-02-17T04:13:53;100242.63;;;10.29;79.31
65718;BME280;52445;52.466;-1.016;2023-02-17T04:16:20;100253.00;;;10.29;79.32
65718;BME280;52445;52.466;-1.016;2023-02-17T04:18:46;100253.00;;;10.33;78.11
65718;BME280;52445;52.466;-1.016;2023-02-17T04:21:13;100255.59;;;10.33;78.73
65718;BME280;52445;52.466;-1.016;2023-02-17T04:23:39;100236.59;;;10.32;78.39
65718;BME280;52445;52.466;-1.016;2023-02-17T04:26:07;100233.13;;;10.35;79.01
65718;BME280;52445;52.466;-1.016;2023-02-17T04:28:37;100232.28;;;10.29;78.81
65718;BME280;52445;52.466;-1.016;2023-02-17T04:31:04;100228.84;;;10.34;78.68
65718;BME280;52445;52.466;-1.016;2023-02-17T04:33:31;100221.06;;;10.35;78.56
65718;BME280;52445;52.466;-1.016;2023-02-17T04:35:58;100223.66;;;10.34;78.44
65718;BME280;52445;52.466;-1.016;2023-02-17T04:38:26;100215.88;;;10.35;78.94
65718;BME280;52445;52.466;-1.016;2023-02-17T04:40:55;100226.25;;;10.35;78.82
65718;BME280;52445;52.466;-1.016;2023-02-17T04:43:23;100215.91;;;10.37;77.99
65718;BME280;52445;52.466;-1.016;2023-02-17T04:45:50;100199.47;;;10.35;78.65
65718;BME280;52445;52.466;-1.016;2023-02-17T04:48:17;100218.47;;;10.27;78.54
65718;BME280;52445;52.466;-1.016;2023-02-17T04:50:44;100205.53;;;10.31;77.87
65718;BME280;52445;52.466;-1.016;2023-02-17T04:53:11;100204.66;;;10.28;78.92
65718;BME280;52445;52.466;-1.016;2023-02-17T04:55:40;100210.69;;;10.31;78.80
65718;BME280;52445;52.466;-1.016;2023-02-17T04:58:07;100208.09;;;10.27;78.08
65718;BME280;52445;52.466;-1.016;2023-02-17T05:00:34;100206.38;;;10.26;77.95
65718;BME280;52445;52.466;-1.016;2023-02-17T05:03:01;100207.25;;;10.27;78.27
65718;BME280;52445;52.466;-1.016;2023-02-17T05:05:28;100210.69;;;10.29;78.21
65718;BME280;52445;52.466;-1.016;2023-02-17T05:07:55;100196.91;;;10.27;78.66
65718;BME280;52445;52.466;-1.016;2023-02-17T05:10:21;100192.56;;;10.26;78.67
65718;BME280;52445;52.466;-1.016;2023-02-17T05:12:49;100196.00;;;10.23;78.00
65718;BME280;52445;52.466;-1.016;2023-02-17T05:15:16;100181.34;;;10.18;78.61
65718;BME280;52445;52.466;-1.016;2023-02-17T05:17:42;100182.22;;;10.18;78.66
65718;BME280;52445;52.466;-1.016;2023-02-17T05:20:09;100185.69;;;10.17;77.98
65718;BME280;52445;52.466;-1.016;2023-02-17T05:22:36;100182.22;;;10.15;78.02
65718;BME280;52445;52.466;-1.016;2023-02-17T05:25:03;100181.34;;;10.11;77.98
65718;BME280;52445;52.466;-1.016;2023-02-17T05:27:31;100179.59;;;10.10;77.91
65718;BME280;52445;52.466;-1.016;2023-02-17T05:29:58;100175.28;;;10.06;78.32
65718;BME280;52445;52.466;-1.016;2023-02-17T05:32:25;100175.28;;;10.08;78.40
65718;BME280;52445;52.466;-1.016;2023-02-17T05:34:51;100173.59;;;10.08;78.22
65718;BME280;52445;52.466;-1.016;2023-02-17T05:37:18;100171.84;;;10.09;78.31
65718;BME280;52445;52.466;-1.016;2023-02-17T05:39:45;100173.56;;;10.07;78.70
65718;BME280;52445;52.466;-1.016;2023-02-17T05:42:11;100186.50;;;10.05;78.56
65718;BME280;52445;52.466;-1.016;2023-02-17T05:44:38;100185.63;;;10.05;78.28
65718;BME280;52445;52.466;-1.016;2023-02-17T05:47:05;100178.75;;;10.11;78.23
65718;BME280;52445;52.466;-1.016;2023-02-17T05:49:31;100175.31;;;10.12;78.89
65718;BME280;52445;52.466;-1.016;2023-02-17T05:51:58;100177.91;;;10.15;78.05
65718;BME280;52445;52.466;-1.016;2023-02-17T05:54:24;100178.75;;;10.16;78.59
65718;BME280;52445;52.466;-1.016;2023-02-17T05:56:51;100182.22;;;10.18;77.92
65718;BME280;52445;52.466;-1.016;2023-02-17T05:59:18;100187.41;;;10.21;78.57
65718;BME280;52445;52.466;-1.016;2023-02-17T06:01:45;100187.41;;;10.21;78.58
65718;BME280;52445;52.466;-1.016;2023-02-17T06:04:11;100187.38;;;10.24;78.29
65718;BME280;52445;52.466;-1.016;2023-02-17T06:06:38;100189.97;;;10.26;78.21
65718;BME280;52445;52.466;-1.016;2023-02-17T06:09:04;100201.19;;;10.23;78.44
65718;BME280;52445;52.466;-1.016;2023-02-17T06:11:31;100199.47;;;10.25;77.45
65718;BME280;52445;52.466;-1.016;2023-02-17T06:13:58;100202.09;;;10.28;78.39
65718;BME280;52445;52.466;-1.016;2023-02-17T06:16:25;100208.09;;;10.31;78.31
65718;BME280;52445;52.466;-1.016;2023-02-17T06:18:51;100206.41;;;10.33;77.45
65718;BME280;52445;52.466;-1.016;2023-02-17T06:21:18;100202.06;;;10.35;77.40
65718;BME280;52445;52.466;-1.016;2023-02-17T06:23:44;100202.06;;;10.35;77.26
65718;BME280;52445;52.466;-1.016;2023-02-17T06:26:11;100206.38;;;10.39;77.44
65718;BME280;52445;52.466;-1.016;2023-02-17T06:28:38;100204.66;;;10.38;78.42
65718;BME280;52445;52.466;-1.016;2023-02-17T06:31:04;100197.75;;;10.40;77.68
65718;BME280;52445;52.466;-1.016;2023-02-17T06:33:31;100202.09;;;10.43;77.45
65718;BME280;52445;52.466;-1.016;2023-02-17T06:35:58;100198.63;;;10.44;77.97
65718;BME280;52445;52.466;-1.016;2023-02-17T06:38:24;100211.63;;;10.45;77.82
65718;BME280;52445;52.466;-1.016;2023-02-17T06:40:52;100202.97;;;10.45;77.20
65718;BME280;52445;52.466;-1.016;2023-02-17T06:43:19;100211.63;;;10.45;77.82
65718;BME280;52445;52.466;-1.016;2023-02-17T06:45:45;100202.97;;;10.46;77.83
65718;BME280;52445;52.466;-1.016;2023-02-17T06:48:12;100194.34;;;10.50;77.47
65718;BME280;52445;52.466;-1.016;2023-02-17T06:50:38;100199.50;;;10.44;78.13
65718;BME280;52445;52.466;-1.016;2023-02-17T06:53:05;100179.66;;;10.48;77.52
65718;BME280;52445;52.466;-1.016;2023-02-17T06:55:32;100170.19;;;10.48;78.18
65718;BME280;52445;52.466;-1.016;2023-02-17T06:58:00;100190.91;;;10.45;78.23
65718;BME280;52445;52.466;-1.016;2023-02-17T07:00:27;100208.16;;;10.49;77.12
65718;BME280;52445;52.466;-1.016;2023-02-17T07:02:54;100213.34;;;10.49;77.45
65718;BME280;52445;52.466;-1.016;2023-02-17T07:05:20;100227.13;;;10.51;77.19
65718;BME280;52445;52.466;-1.016;2023-02-17T07:07:47;100208.16;;;10.52;78.07
65718;BME280;52445;52.466;-1.016;2023-02-17T07:10:13;100207.28;;;10.53;78.09
65718;BME280;52445;52.466;-1.016;2023-02-17T07:12:40;100209.88;;;10.53;77.63
65718;BME280;52445;52.466;-1.016;2023-02-17T07:15:07;100221.97;;;10.54;77.67
65718;BME280;52445;52.466;-1.016;2023-02-17T07:17:37;100217.66;;;10.57;77.29
65718;BME280;52445;52.466;-1.016;2023-02-17T07:20:04;100221.09;;;10.57;77.70
65718;BME280;52445;52.466;-1.016;2023-02-17T07:22:31;100194.34;;;10.57;77.70
65718;BME280;52445;52.466;-1.016;2023-02-17T07:24:58;100208.13;;;10.56;77.14
65718;BME280;52445;52.466;-1.016;2023-02-17T07:27:24;100230.63;;;10.58;77.78
65718;BME280;52445;52.466;-1.016;2023-02-17T07:29:51;100221.97;;;10.59;77.47
65718;BME280;52445;52.466;-1.016;2023-02-17T07:32:17;100215.06;;;10.57;77.39
65718;BME280;52445;52.466;-1.016;2023-02-17T07:34:44;100204.72;;;10.60;78.32
65718;BME280;52445;52.466;-1.016;2023-02-17T07:37:11;100196.06;;;10.61;77.96
65718;BME280;52445;52.466;-1.016;2023-02-17T07:39:37;100202.09;;;10.63;77.96
65718;BME280;52445;52.466;-1.016;2023-02-17T07:42:04;100202.97;;;10.62;77.31
65718;BME280;52445;52.466;-1.016;2023-02-17T07:44:31;100202.09;;;10.64;78.07
65718;BME280;52445;52.466;-1.016;2023-02-17T07:46:58;100215.94;;;10.65;78.20
65718;BME280;52445;52.466;-1.016;2023-02-17T07:49:25;100213.34;;;10.68;78.54
65718;BME280;52445;52.466;-1.016;2023-02-17T07:51:51;100209.00;;;10.69;77.35
65718;BME280;52445;52.466;-1.016;2023-02-17T07:54:18;100215.06;;;10.67;78.03
65718;BME280;52445;52.466;-1.016;2023-02-17T07:56:45;100223.69;;;10.71;78.34
65718;BME280;52445;52.466;-1.016;2023-02-17T07:59:12;100216.78;;;10.73;77.48
65718;BME280;52445;52.466;-1.016;2023-02-17T08:01:39;100213.31;;;10.74;78.55
65718;BME280;52445;52.466;-1.016;2023-02-17T08:04:06;100218.50;;;10.74;77.98
65718;BME280;52445;52.466;-1.016;2023-02-17T08:06:33;100220.22;;;10.78;77.84
65718;BME280;52445;52.466;-1.016;2023-02-17T08:08:59;100221.94;;;10.83;77.41
65718;BME280;52445;52.466;-1.016;2023-02-17T08:11:46;100239.22;;;10.80;77.90
65718;BME280;52445;52.466;-1.016;2023-02-17T08:14:32;100231.47;;;10.82;77.17
65718;BME280;52445;52.466;-1.016;2023-02-17T08:16:59;100242.69;;;10.89;78.15
65718;BME280;52445;52.466;-1.016;2023-02-17T08:19:26;100242.69;;;10.86;77.51
65718;BME280;52445;52.466;-1.016;2023-02-17T08:22:11;100246.13;;;10.88;78.63
65718;BME280;52445;52.466;-1.016;2023-02-17T08:24:38;100242.69;;;10.92;78.02
65718;BME280;52445;52.466;-1.016;2023-02-17T08:27:05;100246.13;;;10.94;78.52
65718;BME280;52445;52.466;-1.016;2023-02-17T08:29:31;100235.75;;;10.94;78.29
65718;BME280;52445;52.466;-1.016;2023-02-17T08:31:58;100234.03;;;10.99;78.39
65718;BME280;52445;52.466;-1.016;2023-02-17T08:34:24;100227.97;;;10.96;77.65
65718;BME280;52445;52.466;-1.016;2023-02-17T08:36:51;100228.81;;;11.02;77.35
65718;BME280;52445;52.466;-1.016;2023-02-17T08:39:18;100234.00;;;11.09;77.53
65718;BME280;52445;52.466;-1.016;2023-02-17T08:41:47;100232.28;;;11.11;77.54
65718;BME280;52445;52.466;-1.016;2023-02-17T08:44:16;100230.53;;;11.16;77.42
65718;BME280;52445;52.466;-1.016;2023-02-17T08:46:44;100227.94;;;11.19;77.93
65718;BME280;52445;52.466;-1.016;2023-02-17T08:49:15;100226.19;;;11.21;78.17
65718;BME280;52445;52.466;-1.016;2023-02-17T08:51:42;100218.41;;;11.24;78.36
65718;BME280;52445;52.466;-1.016;2023-02-17T08:54:09;100228.78;;;11.27;77.14
65718;BME280;52445;52.466;-1.016;2023-02-17T08:56:38;100234.81;;;11.31;78.57
65718;BME280;52445;52.466;-1.016;2023-02-17T08:59:07;100225.31;;;11.36;77.82
65718;BME280;52445;52.466;-1.016;2023-02-17T09:01:36;100235.66;;;11.41;76.76
65718;BME280;52445;52.466;-1.016;2023-02-17T09:04:04;100233.94;;;11.40;77.21
65718;BME280;52445;52.466;-1.016;2023-02-17T09:06:34;100240.84;;;11.44;77.51
65718;BME280;52445;52.466;-1.016;2023-02-17T09:09:02;100233.03;;;11.47;78.27
65718;BME280;52445;52.466;-1.016;2023-02-17T09:11:29;100242.53;;;11.51;77.90
65718;BME280;52445;52.466;-1.016;2023-02-17T09:13:56;100239.06;;;11.55;78.04
65718;BME280;52445;52.466;-1.016;2023-02-17T09:16:23;100236.47;;;11.55;77.63
65718;BME280;52445;52.466;-1.016;2023-02-17T09:18:51;100237.31;;;11.62;76.83
65718;BME280;52445;52.466;-1.016;2023-02-17T09:21:18;100232.97;;;11.66;76.97
65718;BME280;52445;52.466;-1.016;2023-02-17T09:23:46;100227.78;;;11.67;76.79
65718;BME280;52445;52.466;-1.016;2023-02-17T09:26:15;100237.28;;;11.70;77.24
65718;BME280;52445;52.466;-1.016;2023-02-17T09:28:42;100226.00;;;11.76;77.94
65718;BME280;52445;52.466;-1.016;2023-02-17T09:31:15;100223.41;;;11.77;76.67
65718;BME280;52445;52.466;-1.016;2023-02-17T09:33:43;100230.31;;;11.81;76.75
65718;BME280;52445;52.466;-1.016;2023-02-17T09:36:12;100223.34;;;11.87;76.52
65718;BME280;52445;52.466;-1.016;2023-02-17T09:38:40;100249.28;;;11.93;76.86
65718;BME280;52445;52.466;-1.016;2023-02-17T09:41:16;100234.56;;;11.95;77.70
65718;BME280;52445;52.466;-1.016;2023-02-17T09:43:44;100237.13;;;12.01;77.37
65718;BME280;52445;52.466;-1.016;2023-02-17T09:46:20;100243.16;;;12.05;76.42
65718;BME280;52445;52.466;-1.016;2023-02-17T09:48:49;100245.75;;;12.10;77.62
65718;BME280;52445;52.466;-1.016;2023-02-17T09:51:25;100245.72;;;12.17;77.08
65718;BME280;52445;52.466;-1.016;2023-02-17T09:56:36;100238.75;;;12.27;76.95
65718;BME280;52445;52.466;-1.016;2023-02-17T09:59:10;100245.63;;;12.31;76.72
65718;BME280;52445;52.466;-1.016;2023-02-17T10:01:37;100240.34;;;12.44;75.80
65718;BME280;52445;52.466;-1.016;2023-02-17T10:04:09;100242.94;;;12.49;75.75
65718;BME280;52445;52.466;-1.016;2023-02-17T10:06:45;100241.94;;;12.60;76.00
65718;BME280;52445;52.466;-1.016;2023-02-17T10:12:09;100246.91;;;12.89;75.46
65718;BME280;52445;52.466;-1.016;2023-02-17T10:14:44;100243.34;;;12.99;74.98
65718;BME280;52445;52.466;-1.016;2023-02-17T10:17:21;100250.25;;;13.03;75.32
65718;BME280;52445;52.466;-1.016;2023-02-17T10:19:55;100264.06;;;13.08;74.54
65718;BME280;52445;52.466;-1.016;2023-02-17T10:22:23;100256.06;;;13.29;74.38
65718;BME280;52445;52.466;-1.016;2023-02-17T10:24:51;100265.47;;;13.41;74.92
65718;BME280;52445;52.466;-1.016;2023-02-17T10:27:46;100268.88;;;13.46;74.36
65718;BME280;52445;52.466;-1.016;2023-02-17T10:35:52;100280.81;;;13.67;73.22
65718;BME280;52445;52.466;-1.016;2023-02-17T10:41:21;100278.00;;;13.86;72.73
65718;BME280;52445;52.466;-1.016;2023-02-17T10:43:50;100286.63;;;13.90;73.78
65718;BME280;52445;52.466;-1.016;2023-02-17T10:46:23;100280.47;;;13.95;73.03
65718;BME280;52445;52.466;-1.016;2023-02-17T10:48:52;100290.03;;;13.96;72.39
65718;BME280;52445;52.466;-1.016;2023-02-17T10:51:29;100300.44;;;13.96;72.33
65718;BME280;52445;52.466;-1.016;2023-02-17T10:53:58;100306.63;;;13.87;71.98
65718;BME280;52445;52.466;-1.016;2023-02-17T10:56:47;100286.50;;;13.99;72.28
65718;BME280;52445;52.466;-1.016;2023-02-17T11:04:51;100302.66;;;14.24;72.20
65718;BME280;52445;52.466;-1.016;2023-02-17T11:07:30;100305.16;;;14.31;71.43
65718;BME280;52445;52.466;-1.016;2023-02-17T11:10:00;100320.72;;;14.37;71.58
65718;BME280;52445;52.466;-1.016;2023-02-17T11:12:33;100314.59;;;14.39;71.15
65718;BME280;52445;52.466;-1.016;2023-02-17T11:15:14;100311.09;;;14.40;70.84
65718;BME280;52445;52.466;-1.016;2023-02-17T11:17:42;100321.50;;;14.44;71.05
65718;BME280;52445;52.466;-1.016;2023-02-17T11:23:20;100315.34;;;14.48;70.76
65718;BME280;52445;52.466;-1.016;2023-02-17T11:26:09;100318.78;;;14.53;70.24
65718;BME280;52445;52.466;-1.016;2023-02-17T11:28:36;100339.50;;;14.59;70.53
65718;BME280;52445;52.466;-1.016;2023-02-17T11:31:03;100349.88;;;14.64;71.06
65718;BME280;52445;52.466;-1.016;2023-02-17T11:33:38;100340.22;;;14.71;70.93
65718;BME280;52445;52.466;-1.016;2023-02-17T11:36:06;100348.88;;;14.73;70.31
65718;BME280;52445;52.466;-1.016;2023-02-17T11:41:13;100346.13;;;14.85;70.20
65718;BME280;52445;52.466;-1.016;2023-02-17T11:43:51;100353.94;;;14.85;69.37
65718;BME280;52445;52.466;-1.016;2023-02-17T12:16:50;100407.91;;;15.37;66.94
65718;BME280;52445;52.466;-1.016;2023-02-17T12:19:39;100398.38;;;15.34;67.00
65718;BME280;52445;52.466;-1.016;2023-02-17T12:27:37;100391.06;;;15.55;65.28
65718;BME280;52445;52.466;-1.016;2023-02-17T12:30:32;100401.72;;;15.42;63.29
65718;BME280;52445;52.466;-1.016;2023-02-17T12:33:27;100396.81;;;15.24;61.48
65718;BME280;52445;52.466;-1.016;2023-02-17T12:36:01;100398.66;;;15.19;61.62
65718;BME280;52445;52.466;-1.016;2023-02-17T12:38:31;100397.75;;;15.20;62.17
65718;BME280;52445;52.466;-1.016;2023-02-17T12:41:04;100405.41;;;15.29;62.61
65718;BME280;52445;52.466;-1.016;2023-02-17T12:43:40;100395.84;;;15.29;61.68
65718;BME280;52445;52.466;-1.016;2023-02-17T12:46:11;100425.38;;;15.30;61.70
65718;BME280;52445;52.466;-1.016;2023-02-17T12:51:35;100419.56;;;15.15;60.42
65718;BME280;52445;52.466;-1.016;2023-02-17T12:54:11;100416.75;;;15.28;61.09
65718;BME280;52445;52.466;-1.016;2023-02-17T13:02:10;100448.50;;;15.55;61.15
65718;BME280;52445;52.466;-1.016;2023-02-17T13:04:38;100448.44;;;15.58;59.85
65718;BME280;52445;52.466;-1.016;2023-02-17T13:09:45;100472.41;;;15.82;60.59
65718;BME280;52445;52.466;-1.016;2023-02-17T13:12:33;100460.16;;;15.84;59.95
65718;BME280;52445;52.466;-1.016;2023-02-17T13:15:03;100476.47;;;16.00;59.89
65718;BME280;52445;52.466;-1.016;2023-02-17T13:17:37;100473.81;;;16.02;58.79
65718;BME280;52445;52.466;-1.016;2023-02-17T13:20:24;100474.06;;;15.86;57.60
65718;BME280;52445;52.466;-1.016;2023-02-17T13:23:03;100464.91;;;15.62;56.51
65718;BME280;52445;52.466;-1.016;2023-02-17T13:25:32;100486.50;;;15.72;57.88
65718;BME280;52445;52.466;-1.016;2023-02-17T13:28:16;100494.25;;;15.76;57.14
65718;BME280;52445;52.466;-1.016;2023-02-17T13:30:45;100485.28;;;15.91;57.18
65718;BME280;52445;52.466;-1.016;2023-02-17T13:33:28;100483.59;;;15.89;56.88
65718;BME280;52445;52.466;-1.016;2023-02-17T13:35:55;100489.53;;;15.99;57.58
65718;BME280;52445;52.466;-1.016;2023-02-17T13:38:31;100492.19;;;15.94;57.06
65718;BME280;52445;52.466;-1.016;2023-02-17T13:41:00;100505.31;;;15.92;57.05
65718;BME280;52445;52.466;-1.016;2023-02-17T13:43:28;100508.91;;;15.85;57.48
65718;BME280;52445;52.466;-1.016;2023-02-17T13:45:59;100515.25;;;15.68;56.89
65718;BME280;52445;52.466;-1.016;2023-02-17T13:48:30;100526.66;;;15.64;56.94
65718;BME280;52445;52.466;-1.016;2023-02-17T13:51:00;100536.34;;;15.56;56.87
65718;BME280;52445;52.466;-1.016;2023-02-17T13:53:33;100523.50;;;15.44;57.29
65718;BME280;52445;52.466;-1.016;2023-02-17T13:56:07;100513.97;;;15.41;58.10
65718;BME280;52445;52.466;-1.016;2023-02-17T14:01:15;100534.16;;;15.28;57.68
65718;BME280;52445;52.466;-1.016;2023-02-17T14:03:49;100543.81;;;15.23;58.07
65718;BME280;52445;52.466;-1.016;2023-02-17T14:06:29;100537.97;;;15.05;57.74
65718;BME280;52445;52.466;-1.016;2023-02-17T14:08:56;100537.00;;;15.11;58.61
65718;BME280;52445;52.466;-1.016;2023-02-17T14:11:25;100533.53;;;15.10;58.17
65718;BME280;52445;52.466;-1.016;2023-02-17T14:13:54;100532.53;;;15.21;58.59
65718;BME280;52445;52.466;-1.016;2023-02-17T14:21:55;100534.44;;;15.08;58.01
65718;BME280;52445;52.466;-1.016;2023-02-17T14:27:07;100538.28;;;15.43;57.27
65718;BME280;52445;52.466;-1.016;2023-02-17T14:29:39;100542.81;;;15.30;58.60
65718;BME280;52445;52.466;-1.016;2023-02-17T14:32:06;100534.44;;;15.09;58.30
65718;BME280;52445;52.466;-1.016;2023-02-17T14:34:35;100541.34;;;15.10;58.91
65718;BME280;52445;52.466;-1.016;2023-02-17T14:37:16;100553.63;;;15.05;58.73
65718;BME280;52445;52.466;-1.016;2023-02-17T14:39:43;100552.66;;;15.11;58.84
65718;BME280;52445;52.466;-1.016;2023-02-17T14:42:10;100565.66;;;15.15;59.44
65718;BME280;52445;52.466;-1.016;2023-02-17T14:44:39;100577.78;;;15.20;59.47
65718;BME280;52445;52.466;-1.016;2023-02-17T14:47:06;100573.44;;;15.19;58.84